NOZ6J EKCH-ENGM
Flight info
| Callsign | NOZ6J |
|---|---|
| Flight time | 0h 56m |
| Altitude | 32000 |
| Route | VEDAR DCT SABAK DCT LUNIP |
| Aircraft | B738/M-SDE2E3FGHIRWXY/LB1 |
Departure
| Time | 2026-05-07 18:38 |
|---|---|
| Airport | Copenhagen Kastrup Airport (EKCH) |
Arrival
| Time | 2026-05-07 19:34 |
|---|---|
| Airport | Oslo-Gardermoen International Airport (ENGM) |
| Time | Latitude | Longitude | Altitude | Speed | Heading |
|---|---|---|---|---|---|
| 2026-05-07 18:03 | 55.62879 | 12.63934 | 16 ft | 0 kts | 12° |
| 2026-05-07 18:26 | 55.62870 | 12.63931 | 16 ft | 2 kts | 19° |
| 2026-05-07 18:26 | 55.62854 | 12.63921 | 2 ft | 2 kts | 27° |
| 2026-05-07 18:26 | 55.62841 | 12.63904 | 3 ft | 2 kts | 53° |
| 2026-05-07 18:26 | 55.62836 | 12.63877 | 22 ft | 2 kts | 98° |
| 2026-05-07 18:27 | 55.62840 | 12.63849 | 20 ft | 2 kts | 104° |
| 2026-05-07 18:27 | 55.62843 | 12.63820 | 17 ft | 2 kts | 104° |
| 2026-05-07 18:27 | 55.62847 | 12.63792 | 17 ft | 2 kts | 104° |
| 2026-05-07 18:27 | 55.62851 | 12.63764 | 19 ft | 2 kts | 104° |
| 2026-05-07 18:28 | 55.62855 | 12.63735 | 17 ft | 2 kts | 100° |
| 2026-05-07 18:28 | 55.62857 | 12.63707 | 17 ft | 2 kts | 97° |
| 2026-05-07 18:28 | 55.62859 | 12.63686 | 16 ft | 0 kts | 90° |
| 2026-05-07 18:30 | 55.62859 | 12.63690 | 16 ft | 2 kts | 90° |
| 2026-05-07 18:31 | 55.62854 | 12.63752 | 19 ft | 7 kts | 101° |
| 2026-05-07 18:31 | 55.62843 | 12.63839 | 17 ft | 8 kts | 104° |
| 2026-05-07 18:31 | 55.62814 | 12.63945 | 16 ft | 8 kts | 142° |
| 2026-05-07 18:31 | 55.62769 | 12.63949 | 16 ft | 7 kts | 201° |
| 2026-05-07 18:32 | 55.62720 | 12.63900 | 17 ft | 10 kts | 215° |
| 2026-05-07 18:32 | 55.62654 | 12.63865 | 18 ft | 11 kts | 154° |
| 2026-05-07 18:32 | 55.62605 | 12.63979 | 16 ft | 14 kts | 121° |
| 2026-05-07 18:32 | 55.62541 | 12.64151 | 16 ft | 19 kts | 123° |
| 2026-05-07 18:33 | 55.62464 | 12.64348 | 17 ft | 18 kts | 127° |
| 2026-05-07 18:33 | 55.62398 | 12.64447 | 16 ft | 12 kts | 172° |
| 2026-05-07 18:33 | 55.62353 | 12.64433 | 16 ft | 0 kts | 194° |
| 2026-05-07 18:34 | 55.62344 | 12.64430 | 16 ft | 5 kts | 194° |
| 2026-05-07 18:35 | 55.62273 | 12.64395 | 15 ft | 16 kts | 195° |
| 2026-05-07 18:35 | 55.62151 | 12.64306 | 16 ft | 19 kts | 205° |
| 2026-05-07 18:35 | 55.62031 | 12.64206 | 16 ft | 19 kts | 205° |
| 2026-05-07 18:35 | 55.61915 | 12.64107 | 17 ft | 18 kts | 206° |
| 2026-05-07 18:36 | 55.61799 | 12.64074 | 17 ft | 17 kts | 176° |
| 2026-05-07 18:36 | 55.61749 | 12.64081 | 19 ft | 0 kts | 176° |
| 2026-05-07 18:36 | 55.61730 | 12.64083 | 18 ft | 6 kts | 176° |
| 2026-05-07 18:37 | 55.61664 | 12.64089 | 19 ft | 11 kts | 183° |
| 2026-05-07 18:37 | 55.61598 | 12.64031 | 20 ft | 11 kts | 219° |
| 2026-05-07 18:37 | 55.61525 | 12.63919 | 18 ft | 26 kts | 221° |
| 2026-05-07 18:37 | 55.61221 | 12.63450 | 20 ft | 88 kts | 221° |
| 2026-05-07 18:38 | 55.60620 | 12.62519 | 19 ft | 138 kts | 221° |
| 2026-05-07 18:38 | 55.59810 | 12.61256 | 208 ft | 163 kts | 222° |
| 2026-05-07 18:38 | 55.58956 | 12.59918 | 786 ft | 166 kts | 221° |
| 2026-05-07 18:38 | 55.58044 | 12.58537 | 1158 ft | 184 kts | 221° |
| 2026-05-07 18:39 | 55.57006 | 12.56978 | 1390 ft | 207 kts | 222° |
| 2026-05-07 18:39 | 55.56139 | 12.54849 | 1517 ft | 224 kts | 258° |
| 2026-05-07 18:39 | 55.56172 | 12.52063 | 1728 ft | 241 kts | 281° |
| 2026-05-07 18:39 | 55.56472 | 12.49068 | 2195 ft | 252 kts | 281° |
| 2026-05-07 18:40 | 55.56752 | 12.45987 | 2841 ft | 256 kts | 280° |
| 2026-05-07 18:40 | 55.57016 | 12.42865 | 3517 ft | 258 kts | 280° |
| 2026-05-07 18:40 | 55.57305 | 12.39715 | 4179 ft | 260 kts | 287° |
| 2026-05-07 18:40 | 55.58254 | 12.37060 | 4797 ft | 258 kts | 324° |
| 2026-05-07 18:41 | 55.59890 | 12.35875 | 5461 ft | 258 kts | 351° |
| 2026-05-07 18:41 | 55.61684 | 12.35407 | 6060 ft | 262 kts | 352° |
| 2026-05-07 18:41 | 55.63480 | 12.34987 | 6736 ft | 264 kts | 353° |
| 2026-05-07 18:41 | 55.65317 | 12.34566 | 7362 ft | 268 kts | 353° |
| 2026-05-07 18:42 | 55.67181 | 12.34134 | 7974 ft | 272 kts | 353° |
| 2026-05-07 18:42 | 55.69073 | 12.33688 | 8619 ft | 276 kts | 353° |
| 2026-05-07 18:42 | 55.70989 | 12.33230 | 9323 ft | 279 kts | 353° |
| 2026-05-07 18:42 | 55.72927 | 12.32761 | 9981 ft | 284 kts | 353° |
| 2026-05-07 18:43 | 55.74908 | 12.32277 | 10479 ft | 294 kts | 353° |
| 2026-05-07 18:43 | 55.77010 | 12.31762 | 10630 ft | 316 kts | 353° |
| 2026-05-07 18:43 | 55.79258 | 12.31209 | 10802 ft | 336 kts | 353° |
| 2026-05-07 18:43 | 55.81617 | 12.30623 | 11185 ft | 347 kts | 353° |
| 2026-05-07 18:44 | 55.84023 | 12.30023 | 11791 ft | 350 kts | 353° |
| 2026-05-07 18:44 | 55.86446 | 12.29416 | 12505 ft | 352 kts | 352° |
| 2026-05-07 18:44 | 55.88881 | 12.28805 | 13200 ft | 355 kts | 352° |
| 2026-05-07 18:44 | 55.91342 | 12.28187 | 13858 ft | 359 kts | 352° |
| 2026-05-07 18:45 | 55.93842 | 12.27558 | 14466 ft | 363 kts | 352° |
| 2026-05-07 18:45 | 55.96348 | 12.26927 | 15139 ft | 365 kts | 351° |
| 2026-05-07 18:45 | 55.98845 | 12.26298 | 15759 ft | 369 kts | 351° |
| 2026-05-07 18:45 | 56.01404 | 12.25652 | 16344 ft | 374 kts | 351° |
| 2026-05-07 18:46 | 56.03991 | 12.24998 | 17008 ft | 377 kts | 351° |
| 2026-05-07 18:46 | 56.06594 | 12.24340 | 17657 ft | 380 kts | 351° |
| 2026-05-07 18:46 | 56.09227 | 12.23673 | 18270 ft | 383 kts | 351° |
| 2026-05-07 18:46 | 56.11888 | 12.22998 | 18817 ft | 387 kts | 351° |
| 2026-05-07 18:47 | 56.14562 | 12.22319 | 19350 ft | 390 kts | 351° |
| 2026-05-07 18:47 | 56.17256 | 12.21634 | 19889 ft | 392 kts | 351° |
| 2026-05-07 18:47 | 56.19968 | 12.20943 | 20415 ft | 395 kts | 351° |
| 2026-05-07 18:47 | 56.22703 | 12.20246 | 20932 ft | 398 kts | 351° |
| 2026-05-07 18:48 | 56.25455 | 12.19543 | 21443 ft | 401 kts | 351° |
| 2026-05-07 18:48 | 56.28228 | 12.18834 | 21952 ft | 404 kts | 351° |
| 2026-05-07 18:48 | 56.31021 | 12.18119 | 22448 ft | 407 kts | 351° |
| 2026-05-07 18:48 | 56.33833 | 12.17397 | 22931 ft | 410 kts | 351° |
| 2026-05-07 18:49 | 56.36626 | 12.16680 | 23399 ft | 413 kts | 351° |
| 2026-05-07 18:49 | 56.39483 | 12.15945 | 23836 ft | 416 kts | 351° |
| 2026-05-07 18:49 | 56.42357 | 12.15204 | 24249 ft | 417 kts | 351° |
| 2026-05-07 18:49 | 56.45238 | 12.14461 | 24662 ft | 419 kts | 351° |
| 2026-05-07 18:50 | 56.47193 | 12.13956 | 24922 ft | 421 kts | 351° |
| 2026-05-07 18:50 | 56.50062 | 12.13214 | 25281 ft | 423 kts | 351° |
| 2026-05-07 18:50 | 56.52987 | 12.12456 | 25650 ft | 426 kts | 351° |
| 2026-05-07 18:50 | 56.55915 | 12.11673 | 26058 ft | 426 kts | 350° |
| 2026-05-07 18:51 | 56.58859 | 12.10853 | 26433 ft | 428 kts | 350° |
| 2026-05-07 18:51 | 56.61820 | 12.10015 | 26772 ft | 431 kts | 350° |
| 2026-05-07 18:51 | 56.64796 | 12.09169 | 27100 ft | 433 kts | 350° |
| 2026-05-07 18:51 | 56.67782 | 12.08320 | 27435 ft | 435 kts | 350° |
| 2026-05-07 18:52 | 56.70749 | 12.07478 | 27763 ft | 437 kts | 350° |
| 2026-05-07 18:52 | 56.73763 | 12.06624 | 28141 ft | 438 kts | 350° |
| 2026-05-07 18:52 | 56.76772 | 12.05772 | 28629 ft | 436 kts | 350° |
| 2026-05-07 18:52 | 56.79761 | 12.04926 | 29149 ft | 433 kts | 350° |
| 2026-05-07 18:53 | 56.82738 | 12.04082 | 29647 ft | 432 kts | 349° |
| 2026-05-07 18:53 | 56.85702 | 12.03240 | 30108 ft | 430 kts | 349° |
| 2026-05-07 18:53 | 56.88664 | 12.02397 | 30471 ft | 430 kts | 349° |
| 2026-05-07 18:53 | 56.91632 | 12.01551 | 30825 ft | 429 kts | 349° |
| 2026-05-07 18:54 | 56.94546 | 12.00719 | 31198 ft | 428 kts | 350° |
| 2026-05-07 18:54 | 56.97485 | 11.99878 | 31569 ft | 427 kts | 350° |
| 2026-05-07 18:54 | 57.00419 | 11.99038 | 31917 ft | 426 kts | 350° |
| 2026-05-07 18:54 | 57.03345 | 11.98198 | 32157 ft | 427 kts | 350° |
| 2026-05-07 18:55 | 57.06302 | 11.97348 | 32136 ft | 431 kts | 350° |
| 2026-05-07 18:55 | 57.12210 | 11.95647 | 32135 ft | 426 kts | 349° |
| 2026-05-07 18:56 | 57.18030 | 11.93966 | 32146 ft | 422 kts | 349° |
| 2026-05-07 18:56 | 57.23846 | 11.92279 | 32151 ft | 424 kts | 349° |
| 2026-05-07 18:57 | 57.29690 | 11.90578 | 32151 ft | 425 kts | 349° |
| 2026-05-07 18:57 | 57.35513 | 11.88879 | 32152 ft | 427 kts | 349° |
| 2026-05-07 18:58 | 57.41392 | 11.87159 | 32154 ft | 427 kts | 349° |
| 2026-05-07 18:58 | 57.47271 | 11.85432 | 32141 ft | 427 kts | 349° |
| 2026-05-07 18:59 | 57.53136 | 11.83705 | 32140 ft | 426 kts | 349° |
| 2026-05-07 18:59 | 57.58958 | 11.81984 | 32150 ft | 425 kts | 349° |
| 2026-05-07 19:00 | 57.64801 | 11.80251 | 32140 ft | 424 kts | 349° |
| 2026-05-07 19:00 | 57.70626 | 11.78518 | 32131 ft | 423 kts | 348° |
| 2026-05-07 19:01 | 57.76436 | 11.76784 | 32136 ft | 422 kts | 348° |
| 2026-05-07 19:01 | 57.82190 | 11.75061 | 32131 ft | 421 kts | 348° |
| 2026-05-07 19:02 | 57.87974 | 11.73323 | 32132 ft | 420 kts | 348° |
| 2026-05-07 19:02 | 57.93744 | 11.71583 | 32132 ft | 420 kts | 348° |
| 2026-05-07 19:03 | 57.99522 | 11.69836 | 32143 ft | 420 kts | 347° |
| 2026-05-07 19:03 | 58.05295 | 11.68084 | 32142 ft | 419 kts | 347° |
| 2026-05-07 19:04 | 58.11017 | 11.66342 | 32142 ft | 419 kts | 347° |
| 2026-05-07 19:04 | 58.16789 | 11.64580 | 32150 ft | 419 kts | 347° |
| 2026-05-07 19:05 | 58.22548 | 11.62782 | 32149 ft | 419 kts | 347° |
| 2026-05-07 19:05 | 58.28279 | 11.60952 | 32145 ft | 419 kts | 347° |
| 2026-05-07 19:06 | 58.34038 | 11.59107 | 32143 ft | 419 kts | 347° |
| 2026-05-07 19:06 | 58.42682 | 11.56334 | 32140 ft | 420 kts | 347° |
| 2026-05-07 19:07 | 58.48444 | 11.54481 | 32146 ft | 420 kts | 347° |
| 2026-05-07 19:07 | 58.54128 | 11.52650 | 32142 ft | 407 kts | 346° |
| 2026-05-07 19:08 | 58.59629 | 11.50876 | 31623 ft | 401 kts | 346° |
| 2026-05-07 19:08 | 58.62366 | 11.49985 | 31286 ft | 396 kts | 346° |
| 2026-05-07 19:08 | 58.65075 | 11.49103 | 30842 ft | 394 kts | 346° |
| 2026-05-07 19:09 | 58.67766 | 11.48225 | 30471 ft | 390 kts | 346° |
| 2026-05-07 19:09 | 58.70436 | 11.47354 | 30051 ft | 388 kts | 346° |
| 2026-05-07 19:09 | 58.73089 | 11.46487 | 29617 ft | 384 kts | 346° |
| 2026-05-07 19:09 | 58.75706 | 11.45632 | 29226 ft | 379 kts | 346° |
| 2026-05-07 19:10 | 58.78294 | 11.44784 | 28823 ft | 375 kts | 346° |
| 2026-05-07 19:10 | 58.80860 | 11.43990 | 28403 ft | 374 kts | 349° |
| 2026-05-07 19:10 | 58.83469 | 11.43845 | 27992 ft | 375 kts | 355° |
| 2026-05-07 19:10 | 58.86073 | 11.43975 | 27576 ft | 373 kts | 356° |
| 2026-05-07 19:11 | 58.88518 | 11.44139 | 27190 ft | 371 kts | 356° |
| 2026-05-07 19:11 | 58.91083 | 11.44306 | 26809 ft | 368 kts | 356° |
| 2026-05-07 19:11 | 58.93629 | 11.44453 | 26432 ft | 365 kts | 356° |
| 2026-05-07 19:11 | 58.96157 | 11.44581 | 26060 ft | 362 kts | 356° |
| 2026-05-07 19:12 | 58.98667 | 11.44695 | 25696 ft | 359 kts | 356° |
| 2026-05-07 19:12 | 59.01159 | 11.44800 | 25315 ft | 357 kts | 356° |
| 2026-05-07 19:12 | 59.03640 | 11.44901 | 24967 ft | 354 kts | 356° |
| 2026-05-07 19:12 | 59.06103 | 11.44999 | 24604 ft | 353 kts | 356° |
| 2026-05-07 19:13 | 59.08555 | 11.45096 | 24249 ft | 351 kts | 356° |
| 2026-05-07 19:13 | 59.10994 | 11.45192 | 23899 ft | 349 kts | 355° |
| 2026-05-07 19:13 | 59.13426 | 11.45288 | 23483 ft | 348 kts | 355° |
| 2026-05-07 19:13 | 59.15808 | 11.45382 | 23081 ft | 346 kts | 355° |
| 2026-05-07 19:14 | 59.18204 | 11.45478 | 22699 ft | 343 kts | 355° |
| 2026-05-07 19:14 | 59.20578 | 11.45574 | 22361 ft | 340 kts | 355° |
| 2026-05-07 19:14 | 59.22931 | 11.45668 | 21978 ft | 337 kts | 355° |
| 2026-05-07 19:14 | 59.25266 | 11.45761 | 21626 ft | 334 kts | 355° |
| 2026-05-07 19:15 | 59.27588 | 11.45853 | 21277 ft | 332 kts | 356° |
| 2026-05-07 19:15 | 59.29894 | 11.45945 | 20936 ft | 330 kts | 356° |
| 2026-05-07 19:15 | 59.32183 | 11.46036 | 20595 ft | 328 kts | 356° |
| 2026-05-07 19:15 | 59.34460 | 11.46127 | 20242 ft | 326 kts | 356° |
| 2026-05-07 19:16 | 59.36727 | 11.46218 | 19905 ft | 325 kts | 356° |
| 2026-05-07 19:16 | 59.38980 | 11.46309 | 19691 ft | 319 kts | 356° |
| 2026-05-07 19:16 | 59.41141 | 11.46402 | 19552 ft | 312 kts | 356° |
| 2026-05-07 19:16 | 59.43299 | 11.46988 | 19199 ft | 319 kts | 10° |
| 2026-05-07 19:17 | 59.45418 | 11.48300 | 18905 ft | 318 kts | 13° |
| 2026-05-07 19:17 | 59.47516 | 11.49695 | 18567 ft | 318 kts | 14° |
| 2026-05-07 19:17 | 59.49632 | 11.50883 | 18250 ft | 312 kts | 1° |
| 2026-05-07 19:17 | 59.51782 | 11.50831 | 18016 ft | 309 kts | 351° |
| 2026-05-07 19:18 | 59.53965 | 11.50544 | 17748 ft | 315 kts | 351° |
| 2026-05-07 19:18 | 59.56168 | 11.50253 | 17483 ft | 319 kts | 352° |
| 2026-05-07 19:18 | 59.58381 | 11.49971 | 17117 ft | 319 kts | 352° |
| 2026-05-07 19:18 | 59.60588 | 11.49702 | 16782 ft | 316 kts | 352° |
| 2026-05-07 19:19 | 59.62778 | 11.49444 | 16436 ft | 314 kts | 352° |
| 2026-05-07 19:19 | 59.64959 | 11.49190 | 16062 ft | 314 kts | 352° |
| 2026-05-07 19:19 | 59.67133 | 11.48940 | 15760 ft | 312 kts | 352° |
| 2026-05-07 19:19 | 59.69293 | 11.48693 | 15437 ft | 310 kts | 352° |
| 2026-05-07 19:20 | 59.71442 | 11.48448 | 15114 ft | 309 kts | 352° |
| 2026-05-07 19:20 | 59.73582 | 11.48205 | 14801 ft | 307 kts | 352° |
| 2026-05-07 19:20 | 59.75706 | 11.47963 | 14490 ft | 305 kts | 353° |
| 2026-05-07 19:20 | 59.77821 | 11.47723 | 14185 ft | 303 kts | 353° |
| 2026-05-07 19:21 | 59.79922 | 11.47484 | 13873 ft | 302 kts | 353° |
| 2026-05-07 19:21 | 59.81984 | 11.47249 | 13533 ft | 300 kts | 353° |
| 2026-05-07 19:21 | 59.84061 | 11.47012 | 13200 ft | 298 kts | 353° |
| 2026-05-07 19:21 | 59.86135 | 11.46775 | 12912 ft | 300 kts | 353° |
| 2026-05-07 19:22 | 59.88270 | 11.46527 | 12614 ft | 312 kts | 353° |
| 2026-05-07 19:22 | 59.90466 | 11.46271 | 12286 ft | 319 kts | 354° |
| 2026-05-07 19:22 | 59.92690 | 11.46016 | 11943 ft | 321 kts | 354° |
| 2026-05-07 19:22 | 59.94926 | 11.45760 | 11609 ft | 321 kts | 354° |
| 2026-05-07 19:23 | 59.97161 | 11.45506 | 11276 ft | 318 kts | 354° |
| 2026-05-07 19:23 | 59.99361 | 11.45256 | 10949 ft | 315 kts | 354° |
| 2026-05-07 19:23 | 60.01538 | 11.45007 | 10623 ft | 312 kts | 354° |
| 2026-05-07 19:23 | 60.03668 | 11.44763 | 10307 ft | 309 kts | 354° |
| 2026-05-07 19:24 | 60.05795 | 11.44518 | 10132 ft | 303 kts | 354° |
| 2026-05-07 19:24 | 60.07890 | 11.44276 | 9968 ft | 300 kts | 355° |
| 2026-05-07 19:24 | 60.10030 | 11.44026 | 9653 ft | 315 kts | 355° |
| 2026-05-07 19:24 | 60.12243 | 11.43767 | 9323 ft | 320 kts | 355° |
| 2026-05-07 19:25 | 60.14469 | 11.43508 | 8978 ft | 321 kts | 355° |
| 2026-05-07 19:25 | 60.16695 | 11.43251 | 8641 ft | 319 kts | 355° |
| 2026-05-07 19:25 | 60.18871 | 11.42999 | 8316 ft | 315 kts | 355° |
| 2026-05-07 19:25 | 60.21049 | 11.42746 | 7883 ft | 314 kts | 356° |
| 2026-05-07 19:26 | 60.23227 | 11.42492 | 7525 ft | 312 kts | 356° |
| 2026-05-07 19:26 | 60.25378 | 11.42241 | 7193 ft | 308 kts | 356° |
| 2026-05-07 19:26 | 60.27508 | 11.41992 | 6881 ft | 303 kts | 356° |
| 2026-05-07 19:26 | 60.29593 | 11.41748 | 6575 ft | 296 kts | 356° |
| 2026-05-07 19:27 | 60.31605 | 11.41513 | 6308 ft | 284 kts | 356° |
| 2026-05-07 19:27 | 60.33537 | 11.41286 | 6071 ft | 272 kts | 356° |
| 2026-05-07 19:27 | 60.35387 | 11.41068 | 5903 ft | 258 kts | 356° |
| 2026-05-07 19:27 | 60.37131 | 11.40864 | 5797 ft | 244 kts | 356° |
| 2026-05-07 19:28 | 60.38807 | 11.40636 | 5732 ft | 240 kts | 351° |
| 2026-05-07 19:28 | 60.40314 | 11.39308 | 5616 ft | 238 kts | 315° |
| 2026-05-07 19:28 | 60.41185 | 11.36573 | 5478 ft | 235 kts | 284° |
| 2026-05-07 19:28 | 60.41292 | 11.33344 | 5227 ft | 229 kts | 260° |
| 2026-05-07 19:29 | 60.40960 | 11.30261 | 4962 ft | 219 kts | 255° |
| 2026-05-07 19:29 | 60.40584 | 11.27336 | 4706 ft | 211 kts | 254° |
| 2026-05-07 19:29 | 60.40047 | 11.24624 | 4449 ft | 207 kts | 228° |
| 2026-05-07 19:29 | 60.38875 | 11.23227 | 4288 ft | 193 kts | 194° |
| 2026-05-07 19:30 | 60.37602 | 11.22472 | 4060 ft | 189 kts | 198° |
| 2026-05-07 19:30 | 60.36359 | 11.21670 | 3857 ft | 186 kts | 196° |
| 2026-05-07 19:30 | 60.35140 | 11.20939 | 3809 ft | 180 kts | 195° |
| 2026-05-07 19:30 | 60.33910 | 11.20221 | 3561 ft | 184 kts | 195° |
| 2026-05-07 19:31 | 60.32691 | 11.19516 | 3317 ft | 181 kts | 195° |
| 2026-05-07 19:31 | 60.31505 | 11.18831 | 3055 ft | 173 kts | 195° |
| 2026-05-07 19:31 | 60.30371 | 11.18176 | 2820 ft | 166 kts | 195° |
| 2026-05-07 19:31 | 60.29268 | 11.17538 | 2608 ft | 164 kts | 195° |
| 2026-05-07 19:32 | 60.28175 | 11.16906 | 2402 ft | 163 kts | 195° |
| 2026-05-07 19:32 | 60.27085 | 11.16276 | 2169 ft | 163 kts | 195° |
| 2026-05-07 19:32 | 60.26009 | 11.15654 | 1962 ft | 158 kts | 195° |
| 2026-05-07 19:32 | 60.24956 | 11.15045 | 1721 ft | 158 kts | 195° |
| 2026-05-07 19:33 | 60.23900 | 11.14434 | 1496 ft | 158 kts | 195° |
| 2026-05-07 19:33 | 60.22844 | 11.13823 | 1260 ft | 157 kts | 195° |
| 2026-05-07 19:33 | 60.21791 | 11.13215 | 1076 ft | 158 kts | 195° |
| 2026-05-07 19:33 | 60.20737 | 11.12605 | 875 ft | 160 kts | 195° |
| 2026-05-07 19:34 | 60.19678 | 11.11995 | 692 ft | 153 kts | 195° |
| 2026-05-07 19:34 | 60.18791 | 11.11483 | 683 ft | 103 kts | 196° |
| 2026-05-07 19:34 | 60.18296 | 11.11196 | 683 ft | 57 kts | 196° |
| 2026-05-07 19:34 | 60.18063 | 11.10964 | 681 ft | 20 kts | 228° |
| 2026-05-07 19:35 | 60.18044 | 11.10783 | 680 ft | 0 kts | 283° |
| 2026-05-07 19:35 | 60.18047 | 11.10755 | 679 ft | 6 kts | 283° |
| 2026-05-07 19:36 | 60.18063 | 11.10633 | 679 ft | 10 kts | 285° |
| 2026-05-07 19:36 | 60.18105 | 11.10534 | 678 ft | 10 kts | 350° |
| 2026-05-07 19:36 | 60.18185 | 11.10567 | 678 ft | 14 kts | 16° |
| 2026-05-07 19:36 | 60.18293 | 11.10632 | 680 ft | 18 kts | 15° |
| 2026-05-07 19:37 | 60.18428 | 11.10710 | 681 ft | 22 kts | 16° |
| 2026-05-07 19:37 | 60.18589 | 11.10803 | 678 ft | 26 kts | 16° |
| 2026-05-07 19:37 | 60.18758 | 11.10901 | 682 ft | 24 kts | 16° |
| 2026-05-07 19:37 | 60.18916 | 11.10993 | 683 ft | 23 kts | 16° |
| 2026-05-07 19:38 | 60.19068 | 11.11080 | 684 ft | 22 kts | 16° |
| 2026-05-07 19:38 | 60.19214 | 11.11164 | 680 ft | 22 kts | 15° |
| 2026-05-07 19:38 | 60.19310 | 11.11218 | 682 ft | 21 kts | 16° |
| 2026-05-07 19:38 | 60.19433 | 11.11289 | 683 ft | 12 kts | 15° |
| 2026-05-07 19:39 | 60.19496 | 11.11219 | 683 ft | 12 kts | 290° |
| 2026-05-07 19:39 | 60.19520 | 11.11050 | 682 ft | 15 kts | 285° |
| 2026-05-07 19:39 | 60.19553 | 11.10820 | 679 ft | 19 kts | 286° |
| 2026-05-07 19:39 | 60.19587 | 11.10584 | 681 ft | 15 kts | 286° |
| 2026-05-07 19:40 | 60.19623 | 11.10449 | 681 ft | 10 kts | 327° |
| 2026-05-07 19:40 | 60.19664 | 11.10339 | 681 ft | 10 kts | 285° |
| 2026-05-07 19:40 | 60.19674 | 11.10268 | 681 ft | 3 kts | 285° |
| 2026-05-07 19:40 | 60.19679 | 11.10233 | 681 ft | 1 kts | 286° |